sensor_id;sensor_type;location;lat;lon;timestamp;P1;durP1;ratioP1;P2;durP2;ratioP2
53245;SDS011;39569;51.090;-1.786;2022-09-09T00:01:52;16.55;;;3.75;;
53245;SDS011;39569;51.090;-1.786;2022-09-09T00:04:26;19.65;;;4.18;;
53245;SDS011;39569;51.090;-1.786;2022-09-09T00:06:56;9.52;;;3.08;;
53245;SDS011;39569;51.090;-1.786;2022-09-09T00:09:30;18.88;;;4.03;;
53245;SDS011;39569;51.090;-1.786;2022-09-09T00:12:04;9.65;;;4.13;;
53245;SDS011;39569;51.090;-1.786;2022-09-09T00:14:39;6.78;;;4.00;;
53245;SDS011;39569;51.090;-1.786;2022-09-09T00:17:17;13.52;;;3.75;;
53245;SDS011;39569;51.090;-1.786;2022-09-09T00:19:53;10.43;;;4.03;;
53245;SDS011;39569;51.090;-1.786;2022-09-09T00:22:27;10.63;;;3.42;;
53245;SDS011;39569;51.090;-1.786;2022-09-09T00:24:58;11.40;;;3.85;;
53245;SDS011;39569;51.090;-1.786;2022-09-09T00:27:36;6.53;;;3.97;;
53245;SDS011;39569;51.090;-1.786;2022-09-09T00:30:13;16.15;;;4.35;;
53245;SDS011;39569;51.090;-1.786;2022-09-09T00:32:46;4.90;;;3.03;;
53245;SDS011;39569;51.090;-1.786;2022-09-09T00:35:18;7.00;;;3.40;;
53245;SDS011;39569;51.090;-1.786;2022-09-09T00:40:20;9.23;;;3.78;;
53245;SDS011;39569;51.090;-1.786;2022-09-09T00:42:52;6.00;;;4.25;;
53245;SDS011;39569;51.090;-1.786;2022-09-09T00:45:38;10.52;;;4.82;;
53245;SDS011;39569;51.090;-1.786;2022-09-09T00:48:20;16.00;;;4.40;;
53245;SDS011;39569;51.090;-1.786;2022-09-09T00:50:53;12.35;;;3.75;;
53245;SDS011;39569;51.090;-1.786;2022-09-09T00:53:27;7.72;;;4.93;;
53245;SDS011;39569;51.090;-1.786;2022-09-09T00:56:06;16.67;;;4.38;;
53245;SDS011;39569;51.090;-1.786;2022-09-09T00:58:38;18.35;;;5.93;;
53245;SDS011;39569;51.090;-1.786;2022-09-09T01:01:05;17.27;;;4.72;;
53245;SDS011;39569;51.090;-1.786;2022-09-09T01:03:38;10.18;;;4.50;;
53245;SDS011;39569;51.090;-1.786;2022-09-09T01:06:14;13.93;;;4.10;;
53245;SDS011;39569;51.090;-1.786;2022-09-09T01:11:45;10.20;;;4.55;;
53245;SDS011;39569;51.090;-1.786;2022-09-09T01:14:35;8.75;;;4.95;;
53245;SDS011;39569;51.090;-1.786;2022-09-09T01:17:08;9.57;;;4.60;;
53245;SDS011;39569;51.090;-1.786;2022-09-09T01:19:52;12.88;;;4.35;;
53245;SDS011;39569;51.090;-1.786;2022-09-09T01:22:32;15.57;;;5.30;;
53245;SDS011;39569;51.090;-1.786;2022-09-09T01:25:10;8.77;;;4.80;;
53245;SDS011;39569;51.090;-1.786;2022-09-09T01:27:48;9.20;;;5.30;;
53245;SDS011;39569;51.090;-1.786;2022-09-09T01:30:17;5.70;;;4.85;;
53245;SDS011;39569;51.090;-1.786;2022-09-09T01:32:45;8.60;;;5.57;;
53245;SDS011;39569;51.090;-1.786;2022-09-09T01:35:15;7.93;;;5.90;;
53245;SDS011;39569;51.090;-1.786;2022-09-09T01:37:52;16.08;;;7.78;;
53245;SDS011;39569;51.090;-1.786;2022-09-09T01:40:19;8.52;;;6.57;;
53245;SDS011;39569;51.090;-1.786;2022-09-09T01:42:47;21.10;;;6.35;;
53245;SDS011;39569;51.090;-1.786;2022-09-09T01:45:14;9.85;;;6.85;;
53245;SDS011;39569;51.090;-1.786;2022-09-09T01:47:41;10.27;;;7.38;;
53245;SDS011;39569;51.090;-1.786;2022-09-09T01:50:09;13.13;;;8.38;;
53245;SDS011;39569;51.090;-1.786;2022-09-09T01:52:38;13.05;;;7.88;;
53245;SDS011;39569;51.090;-1.786;2022-09-09T01:55:06;11.32;;;7.93;;
53245;SDS011;39569;51.090;-1.786;2022-09-09T01:57:36;16.88;;;8.45;;
53245;SDS011;39569;51.090;-1.786;2022-09-09T02:00:11;16.02;;;7.97;;
53245;SDS011;39569;51.090;-1.786;2022-09-09T02:02:43;23.35;;;9.93;;
53245;SDS011;39569;51.090;-1.786;2022-09-09T02:05:17;11.98;;;9.10;;
53245;SDS011;39569;51.090;-1.786;2022-09-09T02:07:55;10.57;;;7.55;;
53245;SDS011;39569;51.090;-1.786;2022-09-09T02:10:30;9.15;;;7.78;;
53245;SDS011;39569;51.090;-1.786;2022-09-09T02:13:03;10.60;;;8.32;;
53245;SDS011;39569;51.090;-1.786;2022-09-09T02:15:35;17.60;;;9.80;;
53245;SDS011;39569;51.090;-1.786;2022-09-09T02:18:08;10.55;;;7.47;;
53245;SDS011;39569;51.090;-1.786;2022-09-09T02:20:39;8.88;;;6.97;;
53245;SDS011;39569;51.090;-1.786;2022-09-09T02:23:07;13.25;;;6.40;;
53245;SDS011;39569;51.090;-1.786;2022-09-09T02:25:37;12.30;;;7.78;;
53245;SDS011;39569;51.090;-1.786;2022-09-09T02:28:07;12.45;;;7.30;;
53245;SDS011;39569;51.090;-1.786;2022-09-09T02:30:39;12.57;;;7.78;;
53245;SDS011;39569;51.090;-1.786;2022-09-09T02:33:08;11.52;;;7.53;;
53245;SDS011;39569;51.090;-1.786;2022-09-09T02:35:38;21.80;;;8.63;;
53245;SDS011;39569;51.090;-1.786;2022-09-09T02:38:09;24.42;;;7.30;;
53245;SDS011;39569;51.090;-1.786;2022-09-09T02:40:39;8.00;;;7.30;;
53245;SDS011;39569;51.090;-1.786;2022-09-09T02:43:06;11.23;;;7.32;;
53245;SDS011;39569;51.090;-1.786;2022-09-09T02:45:34;14.13;;;8.32;;
53245;SDS011;39569;51.090;-1.786;2022-09-09T02:48:09;11.95;;;7.65;;
53245;SDS011;39569;51.090;-1.786;2022-09-09T02:50:42;14.20;;;7.47;;
53245;SDS011;39569;51.090;-1.786;2022-09-09T02:53:22;8.48;;;7.00;;
53245;SDS011;39569;51.090;-1.786;2022-09-09T02:55:58;8.93;;;6.38;;
53245;SDS011;39569;51.090;-1.786;2022-09-09T02:58:30;35.22;;;8.65;;
53245;SDS011;39569;51.090;-1.786;2022-09-09T03:00:57;11.13;;;6.07;;
53245;SDS011;39569;51.090;-1.786;2022-09-09T03:03:27;13.10;;;5.68;;
53245;SDS011;39569;51.090;-1.786;2022-09-09T03:05:55;18.60;;;7.40;;
53245;SDS011;39569;51.090;-1.786;2022-09-09T03:08:22;13.07;;;6.97;;
53245;SDS011;39569;51.090;-1.786;2022-09-09T03:10:49;11.55;;;7.18;;
53245;SDS011;39569;51.090;-1.786;2022-09-09T03:13:19;12.77;;;7.25;;
53245;SDS011;39569;51.090;-1.786;2022-09-09T03:15:47;13.00;;;7.22;;
53245;SDS011;39569;51.090;-1.786;2022-09-09T03:18:14;8.23;;;6.30;;
53245;SDS011;39569;51.090;-1.786;2022-09-09T03:20:43;14.23;;;6.45;;
53245;SDS011;39569;51.090;-1.786;2022-09-09T03:23:11;7.00;;;6.28;;
53245;SDS011;39569;51.090;-1.786;2022-09-09T03:25:38;13.40;;;6.70;;
53245;SDS011;39569;51.090;-1.786;2022-09-09T03:28:05;7.45;;;6.28;;
53245;SDS011;39569;51.090;-1.786;2022-09-09T03:30:32;7.40;;;5.85;;
53245;SDS011;39569;51.090;-1.786;2022-09-09T03:32:59;8.27;;;5.35;;
53245;SDS011;39569;51.090;-1.786;2022-09-09T03:35:26;10.60;;;7.00;;
53245;SDS011;39569;51.090;-1.786;2022-09-09T03:37:54;16.83;;;6.88;;
53245;SDS011;39569;51.090;-1.786;2022-09-09T03:40:21;12.45;;;6.68;;
53245;SDS011;39569;51.090;-1.786;2022-09-09T03:42:48;12.18;;;5.85;;
53245;SDS011;39569;51.090;-1.786;2022-09-09T03:45:14;9.57;;;5.93;;
53245;SDS011;39569;51.090;-1.786;2022-09-09T03:47:42;15.02;;;7.15;;
53245;SDS011;39569;51.090;-1.786;2022-09-09T03:50:09;12.85;;;6.60;;
53245;SDS011;39569;51.090;-1.786;2022-09-09T03:52:36;14.10;;;6.88;;
53245;SDS011;39569;51.090;-1.786;2022-09-09T03:55:05;10.55;;;6.28;;
53245;SDS011;39569;51.090;-1.786;2022-09-09T03:57:33;22.80;;;5.90;;
53245;SDS011;39569;51.090;-1.786;2022-09-09T04:00:01;10.45;;;4.82;;
53245;SDS011;39569;51.090;-1.786;2022-09-09T04:02:30;7.53;;;4.63;;
53245;SDS011;39569;51.090;-1.786;2022-09-09T04:04:56;7.80;;;4.43;;
53245;SDS011;39569;51.090;-1.786;2022-09-09T04:07:24;16.10;;;5.50;;
53245;SDS011;39569;51.090;-1.786;2022-09-09T04:09:52;14.32;;;5.53;;
53245;SDS011;39569;51.090;-1.786;2022-09-09T04:12:21;11.13;;;4.93;;
53245;SDS011;39569;51.090;-1.786;2022-09-09T04:14:47;7.68;;;4.85;;
53245;SDS011;39569;51.090;-1.786;2022-09-09T04:17:14;5.60;;;4.65;;
53245;SDS011;39569;51.090;-1.786;2022-09-09T04:19:41;7.53;;;4.80;;
53245;SDS011;39569;51.090;-1.786;2022-09-09T04:22:08;13.15;;;4.78;;
53245;SDS011;39569;51.090;-1.786;2022-09-09T04:24:35;5.68;;;4.57;;
53245;SDS011;39569;51.090;-1.786;2022-09-09T04:27:02;11.98;;;5.43;;
53245;SDS011;39569;51.090;-1.786;2022-09-09T04:29:30;19.77;;;4.82;;
53245;SDS011;39569;51.090;-1.786;2022-09-09T04:31:57;12.95;;;5.60;;
53245;SDS011;39569;51.090;-1.786;2022-09-09T04:34:24;5.13;;;4.32;;
53245;SDS011;39569;51.090;-1.786;2022-09-09T04:36:50;6.93;;;5.13;;
53245;SDS011;39569;51.090;-1.786;2022-09-09T04:39:18;14.95;;;5.30;;
53245;SDS011;39569;51.090;-1.786;2022-09-09T04:41:44;6.47;;;4.53;;
53245;SDS011;39569;51.090;-1.786;2022-09-09T04:44:12;13.18;;;6.07;;
53245;SDS011;39569;51.090;-1.786;2022-09-09T04:46:40;10.93;;;6.13;;
53245;SDS011;39569;51.090;-1.786;2022-09-09T04:49:07;14.68;;;6.10;;
53245;SDS011;39569;51.090;-1.786;2022-09-09T04:51:33;13.95;;;7.50;;
53245;SDS011;39569;51.090;-1.786;2022-09-09T04:54:00;12.38;;;6.82;;
53245;SDS011;39569;51.090;-1.786;2022-09-09T04:56:27;11.93;;;6.75;;
53245;SDS011;39569;51.090;-1.786;2022-09-09T04:58:54;9.52;;;6.68;;
53245;SDS011;39569;51.090;-1.786;2022-09-09T05:01:21;10.65;;;5.93;;
53245;SDS011;39569;51.090;-1.786;2022-09-09T05:03:50;9.52;;;5.53;;
53245;SDS011;39569;51.090;-1.786;2022-09-09T05:06:18;17.92;;;5.30;;
53245;SDS011;39569;51.090;-1.786;2022-09-09T05:08:47;21.17;;;6.70;;
53245;SDS011;39569;51.090;-1.786;2022-09-09T05:11:18;12.15;;;5.10;;
53245;SDS011;39569;51.090;-1.786;2022-09-09T05:13:47;8.15;;;4.85;;
53245;SDS011;39569;51.090;-1.786;2022-09-09T05:16:15;12.90;;;5.80;;
53245;SDS011;39569;51.090;-1.786;2022-09-09T05:18:42;5.60;;;4.50;;
53245;SDS011;39569;51.090;-1.786;2022-09-09T05:21:12;11.18;;;4.97;;
53245;SDS011;39569;51.090;-1.786;2022-09-09T05:23:41;10.85;;;5.57;;
53245;SDS011;39569;51.090;-1.786;2022-09-09T05:26:09;7.50;;;6.07;;
53245;SDS011;39569;51.090;-1.786;2022-09-09T05:28:39;7.90;;;5.18;;
53245;SDS011;39569;51.090;-1.786;2022-09-09T05:31:06;8.77;;;5.82;;
53245;SDS011;39569;51.090;-1.786;2022-09-09T05:33:36;7.35;;;5.28;;
53245;SDS011;39569;51.090;-1.786;2022-09-09T05:36:06;7.88;;;5.05;;
53245;SDS011;39569;51.090;-1.786;2022-09-09T05:38:37;15.50;;;5.85;;
53245;SDS011;39569;51.090;-1.786;2022-09-09T05:41:04;7.78;;;5.28;;
53245;SDS011;39569;51.090;-1.786;2022-09-09T05:43:32;4.43;;;4.07;;
53245;SDS011;39569;51.090;-1.786;2022-09-09T05:46:01;16.05;;;6.45;;
53245;SDS011;39569;51.090;-1.786;2022-09-09T05:48:29;7.43;;;5.27;;
53245;SDS011;39569;51.090;-1.786;2022-09-09T05:50:57;19.85;;;4.10;;
53245;SDS011;39569;51.090;-1.786;2022-09-09T05:53:24;16.40;;;5.57;;
53245;SDS011;39569;51.090;-1.786;2022-09-09T05:55:59;10.80;;;5.30;;
53245;SDS011;39569;51.090;-1.786;2022-09-09T05:58:28;5.78;;;4.43;;
53245;SDS011;39569;51.090;-1.786;2022-09-09T06:01:00;14.52;;;5.43;;
53245;SDS011;39569;51.090;-1.786;2022-09-09T06:03:28;6.80;;;3.97;;
53245;SDS011;39569;51.090;-1.786;2022-09-09T06:05:58;9.60;;;3.70;;
53245;SDS011;39569;51.090;-1.786;2022-09-09T06:08:25;8.57;;;4.32;;
53245;SDS011;39569;51.090;-1.786;2022-09-09T06:10:53;11.90;;;3.70;;
53245;SDS011;39569;51.090;-1.786;2022-09-09T06:13:22;9.88;;;4.07;;
53245;SDS011;39569;51.090;-1.786;2022-09-09T06:15:49;9.57;;;4.07;;
53245;SDS011;39569;51.090;-1.786;2022-09-09T06:18:17;12.13;;;3.53;;
53245;SDS011;39569;51.090;-1.786;2022-09-09T06:20:52;6.93;;;3.42;;
53245;SDS011;39569;51.090;-1.786;2022-09-09T06:23:20;10.43;;;4.00;;
53245;SDS011;39569;51.090;-1.786;2022-09-09T06:25:46;6.80;;;3.10;;
53245;SDS011;39569;51.090;-1.786;2022-09-09T06:28:14;7.28;;;3.85;;
53245;SDS011;39569;51.090;-1.786;2022-09-09T06:30:42;6.70;;;3.33;;
53245;SDS011;39569;51.090;-1.786;2022-09-09T06:33:09;5.93;;;3.80;;
53245;SDS011;39569;51.090;-1.786;2022-09-09T06:35:36;4.63;;;2.60;;
53245;SDS011;39569;51.090;-1.786;2022-09-09T06:38:03;3.03;;;2.42;;
53245;SDS011;39569;51.090;-1.786;2022-09-09T06:40:30;4.88;;;2.60;;
53245;SDS011;39569;51.090;-1.786;2022-09-09T06:42:59;5.25;;;2.03;;
53245;SDS011;39569;51.090;-1.786;2022-09-09T06:45:26;12.75;;;1.90;;
53245;SDS011;39569;51.090;-1.786;2022-09-09T06:47:55;3.92;;;2.03;;
53245;SDS011;39569;51.090;-1.786;2022-09-09T06:50:22;5.50;;;2.10;;
53245;SDS011;39569;51.090;-1.786;2022-09-09T06:52:49;8.80;;;2.60;;
53245;SDS011;39569;51.090;-1.786;2022-09-09T06:55:16;4.85;;;2.53;;
53245;SDS011;39569;51.090;-1.786;2022-09-09T06:57:43;7.38;;;3.08;;
53245;SDS011;39569;51.090;-1.786;2022-09-09T07:00:11;3.93;;;2.13;;
53245;SDS011;39569;51.090;-1.786;2022-09-09T07:02:39;6.00;;;2.10;;
53245;SDS011;39569;51.090;-1.786;2022-09-09T07:05:07;5.57;;;1.90;;
53245;SDS011;39569;51.090;-1.786;2022-09-09T07:07:35;6.90;;;2.33;;
53245;SDS011;39569;51.090;-1.786;2022-09-09T07:10:03;5.53;;;2.30;;
53245;SDS011;39569;51.090;-1.786;2022-09-09T07:12:30;4.57;;;1.60;;
53245;SDS011;39569;51.090;-1.786;2022-09-09T07:14:57;6.28;;;3.10;;
53245;SDS011;39569;51.090;-1.786;2022-09-09T07:17:24;12.25;;;2.70;;
53245;SDS011;39569;51.090;-1.786;2022-09-09T07:19:51;5.05;;;2.00;;
53245;SDS011;39569;51.090;-1.786;2022-09-09T07:22:19;5.68;;;2.47;;
53245;SDS011;39569;51.090;-1.786;2022-09-09T07:24:46;19.67;;;2.95;;
53245;SDS011;39569;51.090;-1.786;2022-09-09T07:27:14;8.00;;;3.45;;
53245;SDS011;39569;51.090;-1.786;2022-09-09T07:29:41;5.97;;;2.55;;
53245;SDS011;39569;51.090;-1.786;2022-09-09T07:32:08;7.13;;;3.72;;
53245;SDS011;39569;51.090;-1.786;2022-09-09T07:34:34;4.75;;;2.58;;
53245;SDS011;39569;51.090;-1.786;2022-09-09T07:37:01;9.43;;;2.58;;
53245;SDS011;39569;51.090;-1.786;2022-09-09T07:39:29;7.80;;;2.60;;
53245;SDS011;39569;51.090;-1.786;2022-09-09T07:41:56;7.15;;;2.17;;
53245;SDS011;39569;51.090;-1.786;2022-09-09T07:44:24;8.48;;;2.75;;
53245;SDS011;39569;51.090;-1.786;2022-09-09T07:46:52;11.63;;;2.85;;
53245;SDS011;39569;51.090;-1.786;2022-09-09T07:49:19;4.90;;;2.75;;
53245;SDS011;39569;51.090;-1.786;2022-09-09T07:51:46;4.38;;;1.77;;
53245;SDS011;39569;51.090;-1.786;2022-09-09T07:54:15;8.63;;;2.67;;
53245;SDS011;39569;51.090;-1.786;2022-09-09T07:56:46;3.70;;;2.58;;
53245;SDS011;39569;51.090;-1.786;2022-09-09T07:59:16;5.88;;;3.10;;
53245;SDS011;39569;51.090;-1.786;2022-09-09T08:01:44;3.28;;;2.30;;
53245;SDS011;39569;51.090;-1.786;2022-09-09T08:04:14;4.88;;;2.60;;
53245;SDS011;39569;51.090;-1.786;2022-09-09T08:06:43;9.18;;;2.50;;
53245;SDS011;39569;51.090;-1.786;2022-09-09T08:09:12;3.30;;;1.90;;
53245;SDS011;39569;51.090;-1.786;2022-09-09T08:11:39;6.43;;;3.00;;
53245;SDS011;39569;51.090;-1.786;2022-09-09T08:14:08;3.90;;;2.20;;
53245;SDS011;39569;51.090;-1.786;2022-09-09T08:16:36;5.47;;;2.65;;
53245;SDS011;39569;51.090;-1.786;2022-09-09T08:19:06;13.27;;;2.20;;
53245;SDS011;39569;51.090;-1.786;2022-09-09T08:21:34;5.18;;;2.17;;
53245;SDS011;39569;51.090;-1.786;2022-09-09T08:24:04;4.32;;;2.40;;
53245;SDS011;39569;51.090;-1.786;2022-09-09T08:26:32;8.75;;;2.80;;
53245;SDS011;39569;51.090;-1.786;2022-09-09T08:29:00;5.10;;;2.08;;
53245;SDS011;39569;51.090;-1.786;2022-09-09T08:31:32;2.78;;;2.40;;
53245;SDS011;39569;51.090;-1.786;2022-09-09T08:34:01;6.63;;;2.47;;
53245;SDS011;39569;51.090;-1.786;2022-09-09T08:36:29;4.30;;;2.53;;
53245;SDS011;39569;51.090;-1.786;2022-09-09T08:38:58;3.95;;;1.27;;
53245;SDS011;39569;51.090;-1.786;2022-09-09T08:44:28;5.10;;;2.08;;
53245;SDS011;39569;51.090;-1.786;2022-09-09T08:47:06;2.72;;;1.83;;
53245;SDS011;39569;51.090;-1.786;2022-09-09T08:49:49;6.25;;;1.67;;
53245;SDS011;39569;51.090;-1.786;2022-09-09T08:52:27;6.38;;;2.20;;
53245;SDS011;39569;51.090;-1.786;2022-09-09T08:54:56;2.70;;;1.17;;
53245;SDS011;39569;51.090;-1.786;2022-09-09T08:57:29;4.40;;;1.90;;
53245;SDS011;39569;51.090;-1.786;2022-09-09T08:59:58;4.13;;;1.40;;
53245;SDS011;39569;51.090;-1.786;2022-09-09T09:02:27;3.83;;;1.48;;
53245;SDS011;39569;51.090;-1.786;2022-09-09T09:05:06;5.47;;;1.67;;
53245;SDS011;39569;51.090;-1.786;2022-09-09T09:07:48;2.05;;;1.15;;
53245;SDS011;39569;51.090;-1.786;2022-09-09T09:10:29;12.73;;;1.75;;
53245;SDS011;39569;51.090;-1.786;2022-09-09T09:13:07;6.90;;;1.50;;
53245;SDS011;39569;51.090;-1.786;2022-09-09T09:15:41;2.13;;;1.17;;
53245;SDS011;39569;51.090;-1.786;2022-09-09T09:18:10;2.58;;;1.60;;
53245;SDS011;39569;51.090;-1.786;2022-09-09T09:20:42;1.75;;;1.65;;
53245;SDS011;39569;51.090;-1.786;2022-09-09T09:23:19;10.18;;;1.70;;
53245;SDS011;39569;51.090;-1.786;2022-09-09T09:25:49;4.80;;;2.05;;
53245;SDS011;39569;51.090;-1.786;2022-09-09T09:28:18;2.67;;;1.50;;
53245;SDS011;39569;51.090;-1.786;2022-09-09T09:30:50;2.83;;;1.90;;
53245;SDS011;39569;51.090;-1.786;2022-09-09T09:33:25;3.70;;;1.98;;
53245;SDS011;39569;51.090;-1.786;2022-09-09T09:35:55;1.65;;;1.55;;
53245;SDS011;39569;51.090;-1.786;2022-09-09T09:38:25;2.47;;;1.08;;
53245;SDS011;39569;51.090;-1.786;2022-09-09T09:40:54;9.10;;;1.85;;
53245;SDS011;39569;51.090;-1.786;2022-09-09T09:43:24;3.53;;;1.67;;
53245;SDS011;39569;51.090;-1.786;2022-09-09T09:45:52;5.70;;;1.98;;
53245;SDS011;39569;51.090;-1.786;2022-09-09T09:48:20;3.50;;;1.50;;
53245;SDS011;39569;51.090;-1.786;2022-09-09T09:50:49;3.92;;;2.45;;
53245;SDS011;39569;51.090;-1.786;2022-09-09T09:53:23;5.32;;;2.60;;
53245;SDS011;39569;51.090;-1.786;2022-09-09T09:55:56;2.95;;;1.65;;
53245;SDS011;39569;51.090;-1.786;2022-09-09T09:58:25;2.38;;;1.52;;
53245;SDS011;39569;51.090;-1.786;2022-09-09T10:00:54;5.25;;;1.55;;
53245;SDS011;39569;51.090;-1.786;2022-09-09T10:03:22;2.35;;;1.40;;
53245;SDS011;39569;51.090;-1.786;2022-09-09T10:05:52;8.45;;;2.05;;
53245;SDS011;39569;51.090;-1.786;2022-09-09T10:08:21;7.82;;;2.33;;
53245;SDS011;39569;51.090;-1.786;2022-09-09T10:10:56;3.85;;;2.45;;
53245;SDS011;39569;51.090;-1.786;2022-09-09T10:13:33;1.73;;;1.15;;
53245;SDS011;39569;51.090;-1.786;2022-09-09T10:19:04;7.32;;;1.98;;
53245;SDS011;39569;51.090;-1.786;2022-09-09T10:21:48;1.38;;;1.23;;
53245;SDS011;39569;51.090;-1.786;2022-09-09T10:24:33;1.90;;;1.27;;
53245;SDS011;39569;51.090;-1.786;2022-09-09T10:27:17;3.63;;;1.65;;
53245;SDS011;39569;51.090;-1.786;2022-09-09T10:29:57;10.18;;;1.60;;
53245;SDS011;39569;51.090;-1.786;2022-09-09T10:32:37;9.35;;;1.60;;
53245;SDS011;39569;51.090;-1.786;2022-09-09T10:35:17;1.60;;;1.50;;
53245;SDS011;39569;51.090;-1.786;2022-09-09T10:37:57;2.00;;;1.67;;
53245;SDS011;39569;51.090;-1.786;2022-09-09T10:40:37;3.37;;;2.03;;
53245;SDS011;39569;51.090;-1.786;2022-09-09T10:43:12;10.70;;;1.50;;
53245;SDS011;39569;51.090;-1.786;2022-09-09T10:45:52;5.32;;;2.33;;
53245;SDS011;39569;51.090;-1.786;2022-09-09T10:48:30;5.25;;;1.60;;
53245;SDS011;39569;51.090;-1.786;2022-09-09T10:51:09;2.13;;;1.83;;
53245;SDS011;39569;51.090;-1.786;2022-09-09T10:53:52;9.37;;;2.23;;
53245;SDS011;39569;51.090;-1.786;2022-09-09T10:56:28;7.03;;;2.20;;
53245;SDS011;39569;51.090;-1.786;2022-09-09T10:58:56;2.20;;;1.52;;
53245;SDS011;39569;51.090;-1.786;2022-09-09T11:01:28;10.43;;;2.53;;
53245;SDS011;39569;51.090;-1.786;2022-09-09T11:04:01;1.13;;;0.90;;
53245;SDS011;39569;51.090;-1.786;2022-09-09T11:06:32;1.77;;;1.20;;
53245;SDS011;39569;51.090;-1.786;2022-09-09T11:09:05;7.50;;;0.88;;
53245;SDS011;39569;51.090;-1.786;2022-09-09T11:11:34;1.13;;;0.85;;
53245;SDS011;39569;51.090;-1.786;2022-09-09T11:14:04;1.95;;;0.70;;
53245;SDS011;39569;51.090;-1.786;2022-09-09T11:16:39;12.98;;;1.85;;
53245;SDS011;39569;51.090;-1.786;2022-09-09T11:19:11;0.57;;;0.57;;
53245;SDS011;39569;51.090;-1.786;2022-09-09T11:21:46;4.47;;;1.13;;
53245;SDS011;39569;51.090;-1.786;2022-09-09T11:24:20;1.35;;;0.85;;
53245;SDS011;39569;51.090;-1.786;2022-09-09T11:26:50;2.20;;;1.65;;
53245;SDS011;39569;51.090;-1.786;2022-09-09T11:32:15;0.65;;;0.65;;
53245;SDS011;39569;51.090;-1.786;2022-09-09T11:34:56;0.52;;;0.50;;
53245;SDS011;39569;51.090;-1.786;2022-09-09T11:37:40;2.28;;;1.25;;
53245;SDS011;39569;51.090;-1.786;2022-09-09T11:40:29;1.17;;;1.08;;
53245;SDS011;39569;51.090;-1.786;2022-09-09T11:43:01;2.28;;;0.95;;
53245;SDS011;39569;51.090;-1.786;2022-09-09T11:45:31;1.63;;;1.33;;
53245;SDS011;39569;51.090;-1.786;2022-09-09T11:48:00;0.85;;;0.75;;
53245;SDS011;39569;51.090;-1.786;2022-09-09T11:50:31;14.50;;;1.33;;
53245;SDS011;39569;51.090;-1.786;2022-09-09T11:53:14;9.15;;;1.38;;
53245;SDS011;39569;51.090;-1.786;2022-09-09T11:55:59;3.53;;;1.13;;
53245;SDS011;39569;51.090;-1.786;2022-09-09T11:58:39;0.75;;;0.45;;
53245;SDS011;39569;51.090;-1.786;2022-09-09T12:07:03;0.77;;;0.70;;
53245;SDS011;39569;51.090;-1.786;2022-09-09T12:09:32;0.52;;;0.52;;
53245;SDS011;39569;51.090;-1.786;2022-09-09T12:12:27;9.05;;;1.25;;
53245;SDS011;39569;51.090;-1.786;2022-09-09T12:15:01;0.70;;;0.70;;
53245;SDS011;39569;51.090;-1.786;2022-09-09T12:17:46;1.77;;;0.77;;
53245;SDS011;39569;51.090;-1.786;2022-09-09T12:20:16;4.00;;;1.08;;
53245;SDS011;39569;51.090;-1.786;2022-09-09T12:28:56;0.90;;;0.90;;
53245;SDS011;39569;51.090;-1.786;2022-09-09T12:31:32;2.03;;;1.23;;
53245;SDS011;39569;51.090;-1.786;2022-09-09T12:34:08;0.80;;;0.80;;
53245;SDS011;39569;51.090;-1.786;2022-09-09T12:36:37;0.75;;;0.75;;
53245;SDS011;39569;51.090;-1.786;2022-09-09T12:39:10;1.95;;;0.82;;
53245;SDS011;39569;51.090;-1.786;2022-09-09T12:41:50;0.50;;;0.50;;
53245;SDS011;39569;51.090;-1.786;2022-09-09T12:44:23;0.70;;;0.70;;
53245;SDS011;39569;51.090;-1.786;2022-09-09T12:46:50;0.88;;;0.85;;
53245;SDS011;39569;51.090;-1.786;2022-09-09T12:49:26;4.78;;;1.60;;
53245;SDS011;39569;51.090;-1.786;2022-09-09T12:51:59;0.47;;;0.47;;
53245;SDS011;39569;51.090;-1.786;2022-09-09T12:54:30;2.92;;;0.95;;
53245;SDS011;39569;51.090;-1.786;2022-09-09T12:56:57;0.85;;;0.85;;
53245;SDS011;39569;51.090;-1.786;2022-09-09T12:59:27;1.20;;;1.10;;
53245;SDS011;39569;51.090;-1.786;2022-09-09T13:02:02;1.58;;;1.20;;
53245;SDS011;39569;51.090;-1.786;2022-09-09T13:04:28;2.17;;;1.23;;
53245;SDS011;39569;51.090;-1.786;2022-09-09T13:07:05;3.60;;;1.88;;
53245;SDS011;39569;51.090;-1.786;2022-09-09T13:09:35;4.80;;;2.22;;
53245;SDS011;39569;51.090;-1.786;2022-09-09T13:12:02;1.85;;;1.60;;
53245;SDS011;39569;51.090;-1.786;2022-09-09T13:14:34;5.85;;;2.60;;
53245;SDS011;39569;51.090;-1.786;2022-09-09T13:17:04;2.22;;;1.65;;
53245;SDS011;39569;51.090;-1.786;2022-09-09T13:19:33;18.42;;;2.17;;
53245;SDS011;39569;51.090;-1.786;2022-09-09T13:22:11;1.80;;;1.70;;
53245;SDS011;39569;51.090;-1.786;2022-09-09T13:24:39;4.00;;;2.15;;
53245;SDS011;39569;51.090;-1.786;2022-09-09T13:27:19;4.47;;;2.08;;
53245;SDS011;39569;51.090;-1.786;2022-09-09T13:29:55;4.00;;;2.35;;
53245;SDS011;39569;51.090;-1.786;2022-09-09T13:32:23;3.13;;;1.85;;
53245;SDS011;39569;51.090;-1.786;2022-09-09T13:34:52;2.90;;;2.38;;
53245;SDS011;39569;51.090;-1.786;2022-09-09T13:37:22;5.65;;;2.45;;
53245;SDS011;39569;51.090;-1.786;2022-09-09T13:39:53;4.82;;;3.38;;
53245;SDS011;39569;51.090;-1.786;2022-09-09T13:42:24;5.20;;;2.63;;
53245;SDS011;39569;51.090;-1.786;2022-09-09T13:44:52;3.50;;;1.70;;
53245;SDS011;39569;51.090;-1.786;2022-09-09T13:47:26;1.88;;;1.58;;
53245;SDS011;39569;51.090;-1.786;2022-09-09T13:49:56;10.38;;;3.58;;
53245;SDS011;39569;51.090;-1.786;2022-09-09T13:52:22;3.30;;;1.85;;
53245;SDS011;39569;51.090;-1.786;2022-09-09T13:54:51;6.88;;;1.90;;
53245;SDS011;39569;51.090;-1.786;2022-09-09T13:57:20;4.93;;;2.20;;
53245;SDS011;39569;51.090;-1.786;2022-09-09T13:59:48;3.97;;;1.77;;
53245;SDS011;39569;51.090;-1.786;2022-09-09T14:02:15;4.00;;;1.38;;
53245;SDS011;39569;51.090;-1.786;2022-09-09T14:04:44;4.25;;;2.25;;
53245;SDS011;39569;51.090;-1.786;2022-09-09T14:07:11;4.10;;;1.83;;
53245;SDS011;39569;51.090;-1.786;2022-09-09T14:09:40;3.20;;;2.13;;
53245;SDS011;39569;51.090;-1.786;2022-09-09T14:12:08;3.17;;;1.65;;
53245;SDS011;39569;51.090;-1.786;2022-09-09T14:14:36;7.13;;;2.50;;
53245;SDS011;39569;51.090;-1.786;2022-09-09T14:17:02;2.92;;;2.25;;
53245;SDS011;39569;51.090;-1.786;2022-09-09T14:19:29;4.55;;;2.40;;
53245;SDS011;39569;51.090;-1.786;2022-09-09T14:21:58;11.05;;;2.00;;
53245;SDS011;39569;51.090;-1.786;2022-09-09T14:24:25;8.73;;;2.95;;
53245;SDS011;39569;51.090;-1.786;2022-09-09T14:26:52;3.95;;;2.30;;
53245;SDS011;39569;51.090;-1.786;2022-09-09T14:29:20;6.80;;;3.13;;
53245;SDS011;39569;51.090;-1.786;2022-09-09T14:31:47;10.10;;;3.28;;
53245;SDS011;39569;51.090;-1.786;2022-09-09T14:34:13;6.80;;;3.13;;
53245;SDS011;39569;51.090;-1.786;2022-09-09T14:36:40;3.65;;;2.17;;
53245;SDS011;39569;51.090;-1.786;2022-09-09T14:39:08;3.50;;;1.88;;
53245;SDS011;39569;51.090;-1.786;2022-09-09T14:41:35;6.22;;;2.13;;
53245;SDS011;39569;51.090;-1.786;2022-09-09T14:44:03;6.97;;;1.95;;
53245;SDS011;39569;51.090;-1.786;2022-09-09T14:46:29;2.72;;;1.90;;
53245;SDS011;39569;51.090;-1.786;2022-09-09T14:48:58;5.60;;;2.03;;
53245;SDS011;39569;51.090;-1.786;2022-09-09T14:51:25;2.75;;;1.73;;
53245;SDS011;39569;51.090;-1.786;2022-09-09T14:53:53;11.00;;;3.17;;
53245;SDS011;39569;51.090;-1.786;2022-09-09T14:56:24;2.78;;;2.08;;
53245;SDS011;39569;51.090;-1.786;2022-09-09T14:58:53;4.28;;;1.52;;
53245;SDS011;39569;51.090;-1.786;2022-09-09T15:01:21;7.40;;;2.40;;
53245;SDS011;39569;51.090;-1.786;2022-09-09T15:03:49;4.30;;;2.25;;
53245;SDS011;39569;51.090;-1.786;2022-09-09T15:06:18;1.55;;;1.27;;
53245;SDS011;39569;51.090;-1.786;2022-09-09T15:08:46;9.05;;;2.42;;
53245;SDS011;39569;51.090;-1.786;2022-09-09T15:11:13;2.83;;;2.10;;
53245;SDS011;39569;51.090;-1.786;2022-09-09T15:13:43;2.30;;;1.58;;
53245;SDS011;39569;51.090;-1.786;2022-09-09T15:16:11;2.13;;;2.00;;
53245;SDS011;39569;51.090;-1.786;2022-09-09T15:18:40;3.42;;;2.60;;